createdAt,value
2023-05-08T00:02:49.652Z,9.45
2023-05-08T00:07:52.295Z,6.65
2023-05-08T00:12:52.982Z,8.50
2023-05-08T00:17:53.777Z,11.75
2023-05-08T00:22:56.741Z,10.60
2023-05-08T00:27:57.396Z,11.82
2023-05-08T00:32:58.111Z,8.90
2023-05-08T00:38:00.218Z,8.93
2023-05-08T00:43:00.891Z,9.02
2023-05-08T00:48:02.198Z,15.02
2023-05-08T00:53:06.355Z,8.15
2023-05-08T00:58:08.091Z,6.85
2023-05-08T01:03:10.193Z,9.23
2023-05-08T01:08:12.262Z,10.65
2023-05-08T01:13:21.400Z,12.30
2023-05-08T01:18:29.648Z,10.48
2023-05-08T01:23:59.475Z,14.23
2023-05-08T01:29:30.758Z,9.90
2023-05-08T01:34:35.197Z,9.55
2023-05-08T01:39:44.444Z,11.27
2023-05-08T01:44:50.194Z,10.15
2023-05-08T01:49:59.880Z,10.65
2023-05-08T01:55:05.160Z,9.57
2023-05-08T02:00:07.957Z,11.68
2023-05-08T02:05:15.117Z,11.55
2023-05-08T02:10:17.478Z,12.32
2023-05-08T02:15:22.108Z,11.40
2023-05-08T02:20:24.180Z,15.10
2023-05-08T02:25:26.668Z,12.45
2023-05-08T02:30:28.284Z,12.48
2023-05-08T02:35:32.133Z,12.77
2023-05-08T02:40:34.001Z,11.63
2023-05-08T02:45:42.206Z,10.38
2023-05-08T02:50:49.523Z,10.18
2023-05-08T02:55:55.624Z,14.38
2023-05-08T03:01:01.575Z,12.38
2023-05-08T03:06:10.176Z,12.30
2023-05-08T03:11:16.968Z,11.82
2023-05-08T03:16:21.943Z,14.88
2023-05-08T03:21:29.157Z,13.80
2023-05-08T03:26:30.274Z,13.30
2023-05-08T03:31:34.095Z,12.68
2023-05-08T03:36:37.201Z,16.15
2023-05-08T03:41:38.065Z,15.10
2023-05-08T03:46:39.862Z,13.82
2023-05-08T03:51:43.221Z,19.20
2023-05-08T03:56:45.955Z,12.02
2023-05-08T04:01:53.103Z,14.15
2023-05-08T04:07:05.115Z,12.40
2023-05-08T04:12:19.117Z,14.75
2023-05-08T04:17:30.107Z,17.15
2023-05-08T04:22:34.005Z,16.27
2023-05-08T04:27:36.420Z,14.60
2023-05-08T04:32:40.259Z,17.40
2023-05-08T04:37:43.874Z,11.95
2023-05-08T04:42:47.416Z,10.63
2023-05-08T04:47:50.382Z,10.98
2023-05-08T04:52:52.577Z,12.05
2023-05-08T04:57:53.703Z,10.23
2023-05-08T05:02:54.686Z,9.35
2023-05-08T05:07:56.871Z,8.43
2023-05-08T05:12:58.777Z,9.32
2023-05-08T05:17:59.705Z,9.95
2023-05-08T05:23:01.839Z,7.60
2023-05-08T05:28:03.092Z,7.55
2023-05-08T05:33:03.975Z,7.22
2023-05-08T05:38:06.956Z,6.72
2023-05-08T05:43:07.874Z,6.15
2023-05-08T05:48:08.896Z,5.55
2023-05-08T05:53:11.342Z,6.13
2023-05-08T05:58:12.081Z,4.78
2023-05-08T06:03:12.958Z,5.20
2023-05-08T06:08:16.514Z,9.73
2023-05-08T06:13:17.236Z,5.40
2023-05-08T06:18:18.163Z,5.38
2023-05-08T06:23:20.570Z,4.43
2023-05-08T06:28:22.543Z,4.60
2023-05-08T06:33:25.456Z,6.85
2023-05-08T06:38:28.696Z,6.18
2023-05-08T06:43:30.585Z,5.30
2023-05-08T06:48:31.209Z,8.18
2023-05-08T06:53:33.205Z,5.68
2023-05-08T06:58:33.928Z,4.63
2023-05-08T07:03:34.979Z,5.22
2023-05-08T07:08:37.432Z,4.95
2023-05-08T07:13:38.252Z,4.88
2023-05-08T07:18:41.541Z,3.58
2023-05-08T07:23:43.519Z,3.55
2023-05-08T07:28:44.171Z,3.80
2023-05-08T07:33:44.952Z,4.20
2023-05-08T07:38:47.149Z,4.47
2023-05-08T07:43:47.807Z,4.13
2023-05-08T07:48:48.942Z,2.53
2023-05-08T07:53:51.212Z,2.30
2023-05-08T07:58:51.997Z,3.28
2023-05-08T08:03:54.340Z,3.15
2023-05-08T08:08:56.443Z,4.60
2023-05-08T08:13:57.282Z,2.67
2023-05-08T08:18:57.971Z,3.58
2023-05-08T08:24:00.155Z,2.10
2023-05-08T08:29:00.793Z,1.90
2023-05-08T08:34:01.642Z,2.83
2023-05-08T08:39:03.849Z,1.58
2023-05-08T08:44:04.753Z,1.77
2023-05-08T08:49:08.731Z,2.53
2023-05-08T08:54:13.320Z,1.55
2023-05-08T08:59:14.525Z,2.25
2023-05-08T09:04:15.350Z,1.95
2023-05-08T09:09:17.508Z,2.22
2023-05-08T09:14:18.207Z,2.42
2023-05-08T09:19:23.389Z,1.25
2023-05-08T09:24:30.151Z,2.22
2023-05-08T09:29:31.826Z,2.03
2023-05-08T09:34:33.408Z,1.80
2023-05-08T09:39:35.713Z,2.03
2023-05-08T09:44:47.169Z,1.92
2023-05-08T09:50:01.198Z,2.22
2023-05-08T09:55:04.601Z,1.20
2023-05-08T10:00:09.035Z,2.60
2023-05-08T10:05:24.980Z,4.03
2023-05-08T10:10:28.499Z,1.75
2023-05-08T10:15:31.645Z,2.40
2023-05-08T10:20:34.131Z,2.25
2023-05-08T10:25:38.037Z,2.53
2023-05-08T10:30:44.158Z,2.17
2023-05-08T10:35:49.190Z,1.70
2023-05-08T10:40:53.439Z,3.10
2023-05-08T10:45:55.745Z,2.22
2023-05-08T10:51:05.011Z,1.90
2023-05-08T10:56:07.505Z,3.10
2023-05-08T11:01:26.721Z,2.20
2023-05-08T11:06:45.871Z,2.05
2023-05-08T11:11:55.910Z,2.13
2023-05-08T11:17:10.929Z,3.58
2023-05-08T11:22:23.617Z,3.25
2023-05-08T11:27:59.555Z,6.05
2023-05-08T11:33:14.316Z,2.03
2023-05-08T11:38:20.029Z,3.22
2023-05-08T11:43:27.018Z,2.85
2023-05-08T11:48:27.781Z,2.05
2023-05-08T11:53:29.237Z,3.08
2023-05-08T11:58:31.958Z,2.03
2023-05-08T12:03:32.790Z,1.95
2023-05-08T12:08:33.959Z,3.13
2023-05-08T12:13:36.044Z,2.28
2023-05-08T12:18:38.508Z,2.33
2023-05-08T12:23:40.494Z,3.13
2023-05-08T12:28:45.681Z,2.85
2023-05-08T12:33:46.663Z,3.95
2023-05-08T12:38:47.392Z,2.30
2023-05-08T12:43:49.784Z,3.63
2023-05-08T12:48:50.437Z,1.85
2023-05-08T12:53:51.624Z,1.48
2023-05-08T12:58:53.589Z,3.03
2023-05-08T13:04:01.499Z,3.78
2023-05-08T13:09:03.161Z,1.80
2023-05-08T13:14:05.176Z,1.75
2023-05-08T13:19:05.800Z,4.60
2023-05-08T13:24:07.076Z,4.68
2023-05-08T13:29:09.269Z,4.40
2023-05-08T13:34:10.032Z,3.63
2023-05-08T13:39:11.227Z,3.55
2023-05-08T13:44:13.234Z,5.85
2023-05-08T13:49:13.873Z,4.50
2023-05-08T13:54:14.541Z,7.10
2023-05-08T13:59:16.626Z,6.55
2023-05-08T14:04:17.384Z,3.28
2023-05-08T14:09:18.147Z,8.15
2023-05-08T14:14:20.234Z,10.35
2023-05-08T14:19:20.940Z,2.67
2023-05-08T14:24:21.655Z,2.95
2023-05-08T14:29:23.701Z,3.60
2023-05-08T14:34:24.462Z,4.45
2023-05-08T14:39:25.110Z,3.40
2023-05-08T14:44:27.159Z,6.60
2023-05-08T14:49:36.664Z,3.00
2023-05-08T14:54:38.797Z,5.15
2023-05-08T14:59:49.036Z,3.72
2023-05-08T15:04:55.240Z,5.22
2023-05-08T15:09:55.917Z,9.45
2023-05-08T15:14:57.934Z,7.88
2023-05-08T15:19:58.611Z,9.07
2023-05-08T15:25:02.470Z,3.83
2023-05-08T15:30:05.217Z,3.08
2023-05-08T15:35:06.864Z,5.18
2023-05-08T15:40:09.963Z,11.52
2023-05-08T15:45:12.684Z,5.00
2023-05-08T15:50:14.528Z,4.30
2023-05-08T15:55:15.615Z,5.57
2023-05-08T16:00:18.793Z,7.18
2023-05-08T16:05:20.099Z,5.50
2023-05-08T16:10:20.984Z,5.40
2023-05-08T16:15:23.102Z,6.40
2023-05-08T16:20:24.049Z,6.13
2023-05-08T16:25:25.333Z,3.65
2023-05-08T16:30:27.385Z,2.70
2023-05-08T16:35:29.492Z,6.68
2023-05-08T16:40:30.356Z,3.22
2023-05-08T16:45:34.419Z,6.53
2023-05-08T16:50:35.383Z,6.13
2023-05-08T16:55:36.013Z,2.95
2023-05-08T17:00:38.099Z,5.00
2023-05-08T17:05:38.903Z,3.10
2023-05-08T17:10:41.323Z,4.55
2023-05-08T17:15:43.304Z,3.13
2023-05-08T17:20:43.930Z,6.38
2023-05-08T17:25:44.632Z,3.60
2023-05-08T17:30:48.112Z,6.43
2023-05-08T17:35:48.920Z,7.43
2023-05-08T17:40:49.683Z,5.45
2023-05-08T17:45:51.719Z,5.00
2023-05-08T17:50:52.393Z,9.35
2023-05-08T17:55:54.113Z,6.65
2023-05-08T18:00:57.038Z,4.03
2023-05-08T18:05:57.780Z,8.05
2023-05-08T18:10:58.429Z,7.13
2023-05-08T18:16:00.427Z,8.27
2023-05-08T18:21:01.209Z,4.90
2023-05-08T18:26:02.115Z,5.13
2023-05-08T18:31:04.184Z,4.60
2023-05-08T18:36:10.563Z,6.93
2023-05-08T18:41:11.716Z,5.10
2023-05-08T18:46:14.702Z,10.65
2023-05-08T18:51:15.488Z,9.23
2023-05-08T18:56:16.205Z,5.07
2023-05-08T19:01:20.146Z,8.27
2023-05-08T19:06:21.034Z,7.43
2023-05-08T19:11:21.890Z,4.18
2023-05-08T19:16:24.413Z,3.85
2023-05-08T19:21:25.098Z,9.07
2023-05-08T19:26:26.413Z,9.68
2023-05-08T19:31:28.446Z,8.20
2023-05-08T19:36:29.130Z,7.80
2023-05-08T19:41:29.826Z,13.45
2023-05-08T19:46:31.862Z,7.82
2023-05-08T19:51:32.744Z,11.95
2023-05-08T19:56:33.398Z,7.85
2023-05-08T20:01:35.511Z,5.45
2023-05-08T20:06:38.235Z,7.93
2023-05-08T20:11:38.954Z,6.43
2023-05-08T20:16:41.837Z,8.00
2023-05-08T20:21:42.598Z,12.40
2023-05-08T20:26:43.322Z,6.47
2023-05-08T20:31:45.335Z,8.10
2023-05-08T20:36:46.190Z,9.88
2023-05-08T20:41:46.804Z,6.30
2023-05-08T20:46:48.810Z,9.18
2023-05-08T20:51:49.454Z,9.05
2023-05-08T20:56:50.166Z,11.35
2023-05-08T21:01:52.438Z,7.47
2023-05-08T21:06:53.084Z,10.90
2023-05-08T21:11:53.717Z,6.68
2023-05-08T21:16:55.932Z,7.30
2023-05-08T21:21:56.689Z,8.00
2023-05-08T21:26:59.503Z,13.25
2023-05-08T21:32:01.555Z,7.70
2023-05-08T21:37:02.340Z,6.32
2023-05-08T21:42:03.200Z,7.20
2023-05-08T21:47:05.443Z,6.22
2023-05-08T21:52:06.087Z,13.30
2023-05-08T21:57:07.540Z,5.82
2023-05-08T22:02:09.803Z,9.00
2023-05-08T22:07:10.698Z,8.73
2023-05-08T22:12:11.361Z,7.88
2023-05-08T22:17:13.356Z,10.05
2023-05-08T22:22:14.072Z,10.38
2023-05-08T22:27:14.724Z,7.53
2023-05-08T22:32:18.049Z,9.57
2023-05-08T22:37:18.689Z,6.28
2023-05-08T22:42:19.665Z,9.30
2023-05-08T22:47:21.747Z,6.10
2023-05-08T22:52:22.503Z,6.07
2023-05-08T22:57:23.156Z,6.05
2023-05-08T23:02:25.189Z,7.80
2023-05-08T23:07:26.074Z,9.82
2023-05-08T23:12:26.738Z,5.38
2023-05-08T23:17:28.737Z,8.18
2023-05-08T23:22:29.611Z,5.03
2023-05-08T23:27:30.430Z,4.47
2023-05-08T23:32:32.546Z,5.10
2023-05-08T23:37:33.231Z,7.90
2023-05-08T23:42:33.918Z,7.18
2023-05-08T23:47:36.371Z,6.03
2023-05-08T23:52:37.078Z,6.28
2023-05-08T23:57:38.033Z,6.80
